sensor_id;sensor_type;location;lat;lon;timestamp;pressure;altitude;pressure_sealevel;temperature;humidity
57900;BME280;60605;53.716;19.940;2023-06-19T00:00:17;100276.65;;;14.14;100.00
57900;BME280;60605;53.716;19.940;2023-06-19T00:05:39;100273.83;;;14.07;100.00
57900;BME280;60605;53.716;19.940;2023-06-19T00:10:41;100272.13;;;14.02;100.00
57900;BME280;60605;53.716;19.940;2023-06-19T00:15:43;100266.02;;;13.97;100.00
57900;BME280;60605;53.716;19.940;2023-06-19T00:20:45;100266.64;;;13.93;100.00
57900;BME280;60605;53.716;19.940;2023-06-19T00:25:48;100264.48;;;13.89;100.00
57900;BME280;60605;53.716;19.940;2023-06-19T00:30:50;100268.87;;;13.82;100.00
57900;BME280;60605;53.716;19.940;2023-06-19T00:35:53;100264.44;;;13.75;100.00
57900;BME280;60605;53.716;19.940;2023-06-19T00:40:57;100265.23;;;13.68;100.00
57900;BME280;60605;53.716;19.940;2023-06-19T00:46:00;100268.49;;;13.60;100.00
57900;BME280;60605;53.716;19.940;2023-06-19T00:51:03;100266.68;;;13.52;100.00
57900;BME280;60605;53.716;19.940;2023-06-19T00:56:05;100267.02;;;13.45;100.00
57900;BME280;60605;53.716;19.940;2023-06-19T01:01:07;100271.25;;;13.38;100.00
57900;BME280;60605;53.716;19.940;2023-06-19T01:06:15;100263.38;;;13.33;100.00
57900;BME280;60605;53.716;19.940;2023-06-19T01:11:21;100268.89;;;13.33;100.00
57900;BME280;60605;53.716;19.940;2023-06-19T01:16:30;100271.45;;;13.32;100.00
57900;BME280;60605;53.716;19.940;2023-06-19T01:21:32;100273.78;;;13.33;100.00
57900;BME280;60605;53.716;19.940;2023-06-19T01:26:35;100266.34;;;13.32;100.00
57900;BME280;60605;53.716;19.940;2023-06-19T01:36:47;100274.76;;;13.27;100.00
57900;BME280;60605;53.716;19.940;2023-06-19T01:41:51;100281.99;;;13.23;100.00
57900;BME280;60605;53.716;19.940;2023-06-19T01:46:54;100290.88;;;13.16;100.00
57900;BME280;60605;53.716;19.940;2023-06-19T01:51:56;100293.99;;;13.11;100.00
57900;BME280;60605;53.716;19.940;2023-06-19T01:57:01;100294.04;;;13.10;100.00
57900;BME280;60605;53.716;19.940;2023-06-19T02:02:04;100298.91;;;13.10;100.00
57900;BME280;60605;53.716;19.940;2023-06-19T02:07:08;100301.54;;;13.07;100.00
57900;BME280;60605;53.716;19.940;2023-06-19T02:12:10;100303.84;;;13.03;100.00
57900;BME280;60605;53.716;19.940;2023-06-19T02:17:11;100300.11;;;12.97;100.00
57900;BME280;60605;53.716;19.940;2023-06-19T02:22:13;100292.96;;;12.92;100.00
57900;BME280;60605;53.716;19.940;2023-06-19T02:27:15;100295.86;;;12.89;100.00
57900;BME280;60605;53.716;19.940;2023-06-19T02:32:18;100293.73;;;12.85;100.00
57900;BME280;60605;53.716;19.940;2023-06-19T02:37:20;100297.73;;;12.82;100.00
57900;BME280;60605;53.716;19.940;2023-06-19T02:42:21;100302.15;;;12.79;100.00
57900;BME280;60605;53.716;19.940;2023-06-19T02:47:24;100306.64;;;12.79;100.00
57900;BME280;60605;53.716;19.940;2023-06-19T02:52:26;100304.42;;;12.81;100.00
57900;BME280;60605;53.716;19.940;2023-06-19T02:57:28;100297.15;;;12.89;100.00
57900;BME280;60605;53.716;19.940;2023-06-19T03:02:30;100300.77;;;12.98;100.00
57900;BME280;60605;53.716;19.940;2023-06-19T03:07:32;100309.94;;;13.09;100.00
57900;BME280;60605;53.716;19.940;2023-06-19T03:12:34;100305.73;;;13.23;100.00
57900;BME280;60605;53.716;19.940;2023-06-19T03:17:36;100297.96;;;13.39;100.00
57900;BME280;60605;53.716;19.940;2023-06-19T03:22:41;100295.74;;;13.62;100.00
57900;BME280;60605;53.716;19.940;2023-06-19T03:27:43;100293.81;;;14.02;100.00
57900;BME280;60605;53.716;19.940;2023-06-19T03:32:45;100294.33;;;14.55;100.00
57900;BME280;60605;53.716;19.940;2023-06-19T03:37:48;100297.61;;;15.29;100.00
57900;BME280;60605;53.716;19.940;2023-06-19T03:42:50;100293.25;;;16.26;100.00
57900;BME280;60605;53.716;19.940;2023-06-19T03:47:52;100290.86;;;17.34;100.00
57900;BME280;60605;53.716;19.940;2023-06-19T03:52:55;100288.70;;;18.32;100.00
57900;BME280;60605;53.716;19.940;2023-06-19T03:57:57;100289.55;;;19.00;99.77
57900;BME280;60605;53.716;19.940;2023-06-19T04:02:59;100286.80;;;19.84;98.14
57900;BME280;60605;53.716;19.940;2023-06-19T04:08:01;100286.54;;;20.72;92.06
57900;BME280;60605;53.716;19.940;2023-06-19T04:13:03;100287.34;;;21.50;87.06
57900;BME280;60605;53.716;19.940;2023-06-19T04:18:05;100291.66;;;22.26;82.74
57900;BME280;60605;53.716;19.940;2023-06-19T04:23:07;100292.22;;;23.03;79.41
57900;BME280;60605;53.716;19.940;2023-06-19T04:28:09;100295.30;;;23.56;75.20
57900;BME280;60605;53.716;19.940;2023-06-19T04:33:11;100293.41;;;23.97;72.66
57900;BME280;60605;53.716;19.940;2023-06-19T04:38:14;100295.13;;;24.53;71.32
57900;BME280;60605;53.716;19.940;2023-06-19T04:43:16;100302.33;;;25.21;69.05
57900;BME280;60605;53.716;19.940;2023-06-19T04:48:18;100308.75;;;25.97;67.04
57900;BME280;60605;53.716;19.940;2023-06-19T04:53:20;100316.47;;;26.74;64.33
57900;BME280;60605;53.716;19.940;2023-06-19T04:58:22;100322.70;;;27.41;61.81
57900;BME280;60605;53.716;19.940;2023-06-19T05:03:24;100322.23;;;27.80;59.23
57900;BME280;60605;53.716;19.940;2023-06-19T05:08:26;100326.38;;;27.97;57.35
57900;BME280;60605;53.716;19.940;2023-06-19T05:13:28;100329.09;;;28.39;56.89
57900;BME280;60605;53.716;19.940;2023-06-19T05:18:30;100330.58;;;28.80;55.26
57900;BME280;60605;53.716;19.940;2023-06-19T05:23:33;100333.88;;;29.16;53.89
57900;BME280;60605;53.716;19.940;2023-06-19T05:28:35;100338.99;;;29.50;53.06
57900;BME280;60605;53.716;19.940;2023-06-19T05:33:37;100342.85;;;29.90;51.38
57900;BME280;60605;53.716;19.940;2023-06-19T05:38:40;100349.75;;;30.09;50.03
57900;BME280;60605;53.716;19.940;2023-06-19T05:43:42;100350.56;;;30.38;49.41
57900;BME280;60605;53.716;19.940;2023-06-19T05:48:46;100354.99;;;30.82;48.75
57900;BME280;60605;53.716;19.940;2023-06-19T05:53:49;100358.59;;;31.50;48.32
57900;BME280;60605;53.716;19.940;2023-06-19T05:58:51;100358.77;;;32.09;46.34
57900;BME280;60605;53.716;19.940;2023-06-19T06:03:54;100359.10;;;32.51;45.03
57900;BME280;60605;53.716;19.940;2023-06-19T06:08:57;100362.09;;;32.48;43.98
57900;BME280;60605;53.716;19.940;2023-06-19T06:13:59;100358.95;;;32.65;44.42
57900;BME280;60605;53.716;19.940;2023-06-19T06:19:01;100361.23;;;33.42;44.33
57900;BME280;60605;53.716;19.940;2023-06-19T06:24:04;100362.36;;;34.11;41.46
57900;BME280;60605;53.716;19.940;2023-06-19T06:29:07;100369.16;;;34.67;41.50
57900;BME280;60605;53.716;19.940;2023-06-19T06:34:09;100375.53;;;35.32;40.30
57900;BME280;60605;53.716;19.940;2023-06-19T06:39:11;100378.20;;;35.97;39.74
57900;BME280;60605;53.716;19.940;2023-06-19T06:44:14;100379.64;;;36.75;38.36
57900;BME280;60605;53.716;19.940;2023-06-19T06:49:16;100377.77;;;37.28;36.88
57900;BME280;60605;53.716;19.940;2023-06-19T06:54:18;100382.20;;;37.97;36.52
57900;BME280;60605;53.716;19.940;2023-06-19T06:59:20;100382.65;;;38.56;34.93
57900;BME280;60605;53.716;19.940;2023-06-19T07:04:22;100386.86;;;39.04;33.98
57900;BME280;60605;53.716;19.940;2023-06-19T07:09:24;100389.41;;;39.11;31.79
57900;BME280;60605;53.716;19.940;2023-06-19T07:14:27;100389.59;;;38.95;31.82
57900;BME280;60605;53.716;19.940;2023-06-19T07:19:29;100388.50;;;39.06;32.39
57900;BME280;60605;53.716;19.940;2023-06-19T07:24:31;100385.73;;;39.28;31.48
57900;BME280;60605;53.716;19.940;2023-06-19T07:29:34;100389.84;;;39.37;31.64
57900;BME280;60605;53.716;19.940;2023-06-19T07:34:36;100388.87;;;39.60;30.99
57900;BME280;60605;53.716;19.940;2023-06-19T07:39:38;100385.47;;;39.59;30.01
57900;BME280;60605;53.716;19.940;2023-06-19T07:44:40;100385.92;;;39.05;29.06
57900;BME280;60605;53.716;19.940;2023-06-19T07:49:42;100384.29;;;38.60;30.01
57900;BME280;60605;53.716;19.940;2023-06-19T07:54:51;100391.23;;;38.84;29.57
57900;BME280;60605;53.716;19.940;2023-06-19T07:59:54;100396.70;;;38.91;29.43
57900;BME280;60605;53.716;19.940;2023-06-19T08:04:56;100396.30;;;39.26;29.57
57900;BME280;60605;53.716;19.940;2023-06-19T08:09:58;100396.64;;;39.72;28.92
57900;BME280;60605;53.716;19.940;2023-06-19T08:15:15;100397.84;;;39.90;28.81
57900;BME280;60605;53.716;19.940;2023-06-19T08:20:17;100399.74;;;40.26;28.77
57900;BME280;60605;53.716;19.940;2023-06-19T08:25:19;100398.48;;;40.84;28.61
57900;BME280;60605;53.716;19.940;2023-06-19T08:30:21;100402.33;;;41.29;27.92
57900;BME280;60605;53.716;19.940;2023-06-19T08:35:24;100403.84;;;41.33;27.06
57900;BME280;60605;53.716;19.940;2023-06-19T08:40:26;100406.02;;;41.35;27.40
57900;BME280;60605;53.716;19.940;2023-06-19T08:45:29;100399.86;;;41.46;26.99
57900;BME280;60605;53.716;19.940;2023-06-19T08:50:32;100396.81;;;41.54;26.57
57900;BME280;60605;53.716;19.940;2023-06-19T08:55:34;100403.55;;;41.63;26.95
57900;BME280;60605;53.716;19.940;2023-06-19T09:00:37;100403.42;;;41.60;26.40
57900;BME280;60605;53.716;19.940;2023-06-19T09:05:41;100401.73;;;41.33;27.00
57900;BME280;60605;53.716;19.940;2023-06-19T09:10:59;100401.85;;;39.59;28.30
57900;BME280;60605;53.716;19.940;2023-06-19T09:16:07;100395.91;;;36.99;31.52
57900;BME280;60605;53.716;19.940;2023-06-19T09:21:17;100386.85;;;35.10;34.58
57900;BME280;60605;53.716;19.940;2023-06-19T09:26:20;100385.98;;;35.44;34.55
57900;BME280;60605;53.716;19.940;2023-06-19T09:31:32;100382.83;;;34.50;35.05
57900;BME280;60605;53.716;19.940;2023-06-19T09:36:35;100376.64;;;34.31;36.40
57900;BME280;60605;53.716;19.940;2023-06-19T09:41:39;100374.69;;;35.91;33.24
57900;BME280;60605;53.716;19.940;2023-06-19T09:46:44;100372.00;;;36.77;31.57
57900;BME280;60605;53.716;19.940;2023-06-19T09:51:48;100370.83;;;37.65;30.41
57900;BME280;60605;53.716;19.940;2023-06-19T09:56:52;100374.64;;;38.42;30.64
57900;BME280;60605;53.716;19.940;2023-06-19T10:02:00;100375.80;;;39.21;29.72
57900;BME280;60605;53.716;19.940;2023-06-19T10:07:02;100371.44;;;38.84;29.19
57900;BME280;60605;53.716;19.940;2023-06-19T10:12:12;100369.26;;;37.78;30.59
57900;BME280;60605;53.716;19.940;2023-06-19T10:17:17;100363.71;;;35.97;31.99
57900;BME280;60605;53.716;19.940;2023-06-19T10:22:20;100354.19;;;34.73;32.97
57900;BME280;60605;53.716;19.940;2023-06-19T10:27:24;100355.75;;;33.89;34.87
57900;BME280;60605;53.716;19.940;2023-06-19T10:32:26;100348.13;;;33.14;35.91
57900;BME280;60605;53.716;19.940;2023-06-19T10:37:32;100342.72;;;32.86;37.41
57900;BME280;60605;53.716;19.940;2023-06-19T10:42:41;100341.95;;;32.74;37.46
57900;BME280;60605;53.716;19.940;2023-06-19T10:47:43;100340.38;;;32.53;36.97
57900;BME280;60605;53.716;19.940;2023-06-19T10:52:46;100345.05;;;32.24;37.59
57900;BME280;60605;53.716;19.940;2023-06-19T10:57:50;100342.95;;;32.05;38.62
57900;BME280;60605;53.716;19.940;2023-06-19T11:02:52;100337.40;;;32.06;38.84
57900;BME280;60605;53.716;19.940;2023-06-19T11:07:56;100330.20;;;31.90;38.68
57900;BME280;60605;53.716;19.940;2023-06-19T11:12:59;100328.74;;;31.77;39.60
57900;BME280;60605;53.716;19.940;2023-06-19T11:18:02;100328.69;;;31.55;38.58
57900;BME280;60605;53.716;19.940;2023-06-19T11:23:05;100325.48;;;30.94;38.25
57900;BME280;60605;53.716;19.940;2023-06-19T11:28:11;100322.42;;;30.53;39.51
57900;BME280;60605;53.716;19.940;2023-06-19T11:33:16;100319.98;;;30.35;39.56
57900;BME280;60605;53.716;19.940;2023-06-19T11:38:19;100320.89;;;30.09;40.65
57900;BME280;60605;53.716;19.940;2023-06-19T11:43:26;100315.02;;;30.10;41.63
57900;BME280;60605;53.716;19.940;2023-06-19T11:48:28;100317.52;;;30.09;42.44
57900;BME280;60605;53.716;19.940;2023-06-19T11:53:30;100317.18;;;30.00;40.70
57900;BME280;60605;53.716;19.940;2023-06-19T11:58:32;100313.83;;;29.79;39.93
57900;BME280;60605;53.716;19.940;2023-06-19T12:03:34;100307.67;;;29.63;40.71
57900;BME280;60605;53.716;19.940;2023-06-19T12:08:37;100308.58;;;29.71;42.21
57900;BME280;60605;53.716;19.940;2023-06-19T12:13:43;100312.52;;;29.46;42.27
57900;BME280;60605;53.716;19.940;2023-06-19T12:18:45;100310.30;;;29.15;42.55
57900;BME280;60605;53.716;19.940;2023-06-19T12:23:47;100310.02;;;29.32;43.53
57900;BME280;60605;53.716;19.940;2023-06-19T12:28:50;100307.98;;;29.53;43.63
57900;BME280;60605;53.716;19.940;2023-06-19T12:33:55;100307.04;;;29.52;42.47
57900;BME280;60605;53.716;19.940;2023-06-19T12:39:00;100302.45;;;29.36;42.18
57900;BME280;60605;53.716;19.940;2023-06-19T12:44:04;100296.86;;;29.10;42.85
57900;BME280;60605;53.716;19.940;2023-06-19T12:49:06;100292.69;;;28.83;43.78
57900;BME280;60605;53.716;19.940;2023-06-19T12:54:08;100293.80;;;28.72;45.22
57900;BME280;60605;53.716;19.940;2023-06-19T12:59:10;100293.10;;;28.62;45.25
57900;BME280;60605;53.716;19.940;2023-06-19T13:04:12;100296.09;;;28.44;45.54
57900;BME280;60605;53.716;19.940;2023-06-19T13:09:15;100291.27;;;28.21;45.98
57900;BME280;60605;53.716;19.940;2023-06-19T13:14:17;100291.75;;;28.04;46.50
57900;BME280;60605;53.716;19.940;2023-06-19T13:19:19;100287.59;;;28.01;46.98
57900;BME280;60605;53.716;19.940;2023-06-19T13:24:21;100284.70;;;28.43;46.38
57900;BME280;60605;53.716;19.940;2023-06-19T13:29:24;100284.84;;;29.17;44.51
57900;BME280;60605;53.716;19.940;2023-06-19T13:34:26;100283.79;;;29.53;43.14
57900;BME280;60605;53.716;19.940;2023-06-19T13:39:28;100280.17;;;29.73;42.49
57900;BME280;60605;53.716;19.940;2023-06-19T13:44:29;100275.98;;;29.73;42.26
57900;BME280;60605;53.716;19.940;2023-06-19T13:49:31;100270.17;;;29.73;41.52
57900;BME280;60605;53.716;19.940;2023-06-19T13:54:34;100270.67;;;29.73;41.73
57900;BME280;60605;53.716;19.940;2023-06-19T13:59:36;100263.35;;;29.87;42.60
57900;BME280;60605;53.716;19.940;2023-06-19T14:04:38;100256.21;;;29.91;41.85
57900;BME280;60605;53.716;19.940;2023-06-19T14:09:40;100258.27;;;29.77;41.42
57900;BME280;60605;53.716;19.940;2023-06-19T14:14:43;100259.11;;;29.71;42.13
57900;BME280;60605;53.716;19.940;2023-06-19T14:19:45;100257.21;;;29.57;42.33
57900;BME280;60605;53.716;19.940;2023-06-19T14:24:47;100256.65;;;29.40;41.79
57900;BME280;60605;53.716;19.940;2023-06-19T14:29:49;100258.36;;;29.23;42.65
57900;BME280;60605;53.716;19.940;2023-06-19T14:34:52;100256.86;;;28.99;42.22
57900;BME280;60605;53.716;19.940;2023-06-19T14:39:54;100255.87;;;28.83;42.50
57900;BME280;60605;53.716;19.940;2023-06-19T14:44:56;100251.68;;;28.64;42.64
57900;BME280;60605;53.716;19.940;2023-06-19T14:49:58;100252.16;;;28.30;42.86
57900;BME280;60605;53.716;19.940;2023-06-19T14:55:00;100250.10;;;28.26;43.37
57900;BME280;60605;53.716;19.940;2023-06-19T15:00:03;100244.22;;;28.29;42.73
57900;BME280;60605;53.716;19.940;2023-06-19T15:05:08;100239.09;;;28.33;43.07
57900;BME280;60605;53.716;19.940;2023-06-19T15:10:11;100236.86;;;28.40;43.36
57900;BME280;60605;53.716;19.940;2023-06-19T15:15:13;100239.75;;;28.49;44.39
57900;BME280;60605;53.716;19.940;2023-06-19T15:20:15;100240.44;;;28.54;44.27
57900;BME280;60605;53.716;19.940;2023-06-19T15:25:19;100239.23;;;28.55;44.15
57900;BME280;60605;53.716;19.940;2023-06-19T15:30:21;100236.31;;;28.46;44.22
57900;BME280;60605;53.716;19.940;2023-06-19T15:35:25;100231.56;;;28.37;44.33
57900;BME280;60605;53.716;19.940;2023-06-19T15:40:27;100227.05;;;28.26;43.73
57900;BME280;60605;53.716;19.940;2023-06-19T15:45:29;100233.55;;;28.11;43.92
57900;BME280;60605;53.716;19.940;2023-06-19T15:50:32;100237.15;;;27.99;44.17
57900;BME280;60605;53.716;19.940;2023-06-19T15:55:38;100231.52;;;27.88;44.36
57900;BME280;60605;53.716;19.940;2023-06-19T16:00:40;100232.00;;;27.81;44.70
57900;BME280;60605;53.716;19.940;2023-06-19T16:05:43;100229.13;;;27.64;45.19
57900;BME280;60605;53.716;19.940;2023-06-19T16:11:07;100233.15;;;27.37;45.78
57900;BME280;60605;53.716;19.940;2023-06-19T16:16:09;100231.14;;;27.24;46.16
57900;BME280;60605;53.716;19.940;2023-06-19T16:21:11;100235.35;;;27.23;46.36
57900;BME280;60605;53.716;19.940;2023-06-19T16:26:15;100235.13;;;27.21;46.18
57900;BME280;60605;53.716;19.940;2023-06-19T16:31:17;100233.64;;;27.21;46.58
57900;BME280;60605;53.716;19.940;2023-06-19T16:36:19;100237.65;;;27.29;46.65
57900;BME280;60605;53.716;19.940;2023-06-19T16:41:21;100236.19;;;27.31;46.08
57900;BME280;60605;53.716;19.940;2023-06-19T16:46:24;100232.23;;;27.27;46.30
57900;BME280;60605;53.716;19.940;2023-06-19T16:51:26;100236.73;;;27.23;46.52
57900;BME280;60605;53.716;19.940;2023-06-19T16:56:28;100238.05;;;27.17;46.52
57900;BME280;60605;53.716;19.940;2023-06-19T17:01:30;100239.49;;;27.06;46.52
57900;BME280;60605;53.716;19.940;2023-06-19T17:06:34;100243.88;;;26.93;46.72
57900;BME280;60605;53.716;19.940;2023-06-19T17:11:37;100243.44;;;26.79;47.16
57900;BME280;60605;53.716;19.940;2023-06-19T17:16:43;100239.72;;;26.63;47.74
57900;BME280;60605;53.716;19.940;2023-06-19T17:21:45;100243.41;;;26.50;48.19
57900;BME280;60605;53.716;19.940;2023-06-19T17:26:47;100243.85;;;26.37;48.26
57900;BME280;60605;53.716;19.940;2023-06-19T17:31:49;100245.27;;;26.25;48.49
57900;BME280;60605;53.716;19.940;2023-06-19T17:36:51;100250.00;;;26.09;48.92
57900;BME280;60605;53.716;19.940;2023-06-19T17:41:53;100252.59;;;25.92;49.34
57900;BME280;60605;53.716;19.940;2023-06-19T17:46:55;100249.77;;;25.73;49.89
57900;BME280;60605;53.716;19.940;2023-06-19T17:51:57;100251.20;;;25.56;50.44
57900;BME280;60605;53.716;19.940;2023-06-19T17:56:59;100255.25;;;25.36;50.74
57900;BME280;60605;53.716;19.940;2023-06-19T18:02:01;100255.78;;;25.17;51.11
57900;BME280;60605;53.716;19.940;2023-06-19T18:07:04;100258.70;;;25.01;51.60
57900;BME280;60605;53.716;19.940;2023-06-19T18:12:07;100259.08;;;24.80;52.05
57900;BME280;60605;53.716;19.940;2023-06-19T18:17:09;100265.86;;;24.61;52.33
57900;BME280;60605;53.716;19.940;2023-06-19T18:22:11;100270.11;;;24.39;52.56
57900;BME280;60605;53.716;19.940;2023-06-19T18:27:13;100276.33;;;24.20;52.91
57900;BME280;60605;53.716;19.940;2023-06-19T18:32:16;100277.90;;;24.00;53.88
57900;BME280;60605;53.716;19.940;2023-06-19T18:37:18;100278.92;;;23.80;55.38
57900;BME280;60605;53.716;19.940;2023-06-19T18:42:20;100285.88;;;23.56;57.18
57900;BME280;60605;53.716;19.940;2023-06-19T18:47:22;100289.66;;;23.29;58.96
57900;BME280;60605;53.716;19.940;2023-06-19T18:52:24;100290.80;;;23.01;61.04
57900;BME280;60605;53.716;19.940;2023-06-19T18:57:27;100297.95;;;22.73;62.39
57900;BME280;60605;53.716;19.940;2023-06-19T19:02:30;100301.98;;;22.47;62.40
57900;BME280;60605;53.716;19.940;2023-06-19T19:07:32;100306.23;;;22.25;63.27
57900;BME280;60605;53.716;19.940;2023-06-19T19:12:34;100315.66;;;22.07;64.75
57900;BME280;60605;53.716;19.940;2023-06-19T19:17:37;100322.08;;;21.86;65.69
57900;BME280;60605;53.716;19.940;2023-06-19T19:22:39;100328.70;;;21.66;66.62
57900;BME280;60605;53.716;19.940;2023-06-19T19:27:41;100327.10;;;21.49;67.78
57900;BME280;60605;53.716;19.940;2023-06-19T19:32:43;100330.39;;;21.36;69.70
57900;BME280;60605;53.716;19.940;2023-06-19T19:37:45;100332.43;;;21.24;70.90
57900;BME280;60605;53.716;19.940;2023-06-19T19:42:48;100337.17;;;21.09;72.19
57900;BME280;60605;53.716;19.940;2023-06-19T19:47:51;100336.78;;;20.92;73.32
57900;BME280;60605;53.716;19.940;2023-06-19T19:52:55;100333.03;;;20.80;73.76
57900;BME280;60605;53.716;19.940;2023-06-19T19:57:57;100336.73;;;20.73;74.06
57900;BME280;60605;53.716;19.940;2023-06-19T20:03:02;100334.13;;;20.67;74.48
57900;BME280;60605;53.716;19.940;2023-06-19T20:08:05;100335.27;;;20.63;75.01
57900;BME280;60605;53.716;19.940;2023-06-19T20:13:07;100337.01;;;20.61;75.40
57900;BME280;60605;53.716;19.940;2023-06-19T20:18:10;100338.10;;;20.61;75.64
57900;BME280;60605;53.716;19.940;2023-06-19T20:23:12;100338.27;;;20.60;75.77
57900;BME280;60605;53.716;19.940;2023-06-19T20:28:15;100339.04;;;20.56;75.99
57900;BME280;60605;53.716;19.940;2023-06-19T20:33:17;100335.23;;;20.52;76.69
57900;BME280;60605;53.716;19.940;2023-06-19T20:38:20;100333.73;;;20.48;77.26
57900;BME280;60605;53.716;19.940;2023-06-19T20:43:22;100332.73;;;20.45;77.75
57900;BME280;60605;53.716;19.940;2023-06-19T20:48:28;100335.77;;;20.42;77.98
57900;BME280;60605;53.716;19.940;2023-06-19T20:53:30;100331.39;;;20.36;77.88
57900;BME280;60605;53.716;19.940;2023-06-19T20:58:33;100335.39;;;20.26;78.32
57900;BME280;60605;53.716;19.940;2023-06-19T21:03:35;100337.46;;;20.18;78.96
57900;BME280;60605;53.716;19.940;2023-06-19T21:08:40;100337.95;;;20.11;79.09
57900;BME280;60605;53.716;19.940;2023-06-19T21:13:42;100341.73;;;19.99;79.18
57900;BME280;60605;53.716;19.940;2023-06-19T21:18:45;100337.64;;;19.85;79.75
57900;BME280;60605;53.716;19.940;2023-06-19T21:23:47;100339.86;;;19.71;80.28
57900;BME280;60605;53.716;19.940;2023-06-19T21:28:50;100348.70;;;19.60;80.87
57900;BME280;60605;53.716;19.940;2023-06-19T21:33:52;100348.89;;;19.48;81.62
57900;BME280;60605;53.716;19.940;2023-06-19T21:38:54;100351.55;;;19.38;82.45
57900;BME280;60605;53.716;19.940;2023-06-19T21:43:57;100357.14;;;19.30;83.26
57900;BME280;60605;53.716;19.940;2023-06-19T21:48:59;100354.79;;;19.23;84.11
57900;BME280;60605;53.716;19.940;2023-06-19T21:54:02;100353.78;;;19.21;84.82
57900;BME280;60605;53.716;19.940;2023-06-19T21:59:05;100354.58;;;19.21;85.42
57900;BME280;60605;53.716;19.940;2023-06-19T22:04:07;100352.70;;;19.20;85.79
57900;BME280;60605;53.716;19.940;2023-06-19T22:09:12;100349.10;;;19.18;86.36
57900;BME280;60605;53.716;19.940;2023-06-19T22:14:15;100344.88;;;19.19;87.60
57900;BME280;60605;53.716;19.940;2023-06-19T22:19:17;100347.97;;;19.20;88.35
57900;BME280;60605;53.716;19.940;2023-06-19T22:24:20;100353.06;;;19.18;89.21
57900;BME280;60605;53.716;19.940;2023-06-19T22:29:23;100351.90;;;19.14;89.69
57900;BME280;60605;53.716;19.940;2023-06-19T22:34:24;100346.33;;;19.08;90.33
57900;BME280;60605;53.716;19.940;2023-06-19T22:39:27;100346.15;;;19.03;91.20
57900;BME280;60605;53.716;19.940;2023-06-19T22:44:30;100347.73;;;18.99;92.45
57900;BME280;60605;53.716;19.940;2023-06-19T22:49:32;100355.73;;;18.98;93.57
57900;BME280;60605;53.716;19.940;2023-06-19T22:54:34;100357.08;;;18.97;94.15
57900;BME280;60605;53.716;19.940;2023-06-19T22:59:36;100353.25;;;18.95;94.11
57900;BME280;60605;53.716;19.940;2023-06-19T23:04:38;100348.15;;;18.92;93.67
57900;BME280;60605;53.716;19.940;2023-06-19T23:09:41;100346.39;;;18.89;93.59
57900;BME280;60605;53.716;19.940;2023-06-19T23:14:44;100346.08;;;18.84;93.89
57900;BME280;60605;53.716;19.940;2023-06-19T23:19:46;100349.48;;;18.79;94.03
57900;BME280;60605;53.716;19.940;2023-06-19T23:24:48;100345.46;;;18.74;94.35
57900;BME280;60605;53.716;19.940;2023-06-19T23:29:50;100346.58;;;18.72;94.57
57900;BME280;60605;53.716;19.940;2023-06-19T23:34:52;100347.35;;;18.68;95.31
57900;BME280;60605;53.716;19.940;2023-06-19T23:39:54;100348.13;;;18.65;95.65
57900;BME280;60605;53.716;19.940;2023-06-19T23:44:56;100352.98;;;18.64;96.04
57900;BME280;60605;53.716;19.940;2023-06-19T23:49:58;100355.98;;;18.64;96.54
57900;BME280;60605;53.716;19.940;2023-06-19T23:55:00;100356.69;;;18.61;97.11
